sensor_id;sensor_type;location;lat;lon;timestamp;temperature;humidity
29575;DHT22;16507;51.046;6.406;2022-11-30T00:02:16;6.80;99.90
29575;DHT22;16507;51.046;6.406;2022-11-30T00:04:41;6.40;99.90
29575;DHT22;16507;51.046;6.406;2022-11-30T00:07:07;6.80;99.90
29575;DHT22;16507;51.046;6.406;2022-11-30T00:09:32;6.80;99.90
29575;DHT22;16507;51.046;6.406;2022-11-30T00:11:58;6.50;99.90
29575;DHT22;16507;51.046;6.406;2022-11-30T00:14:24;6.40;99.90
29575;DHT22;16507;51.046;6.406;2022-11-30T00:16:49;6.40;99.90
29575;DHT22;16507;51.046;6.406;2022-11-30T00:19:15;6.60;99.90
29575;DHT22;16507;51.046;6.406;2022-11-30T00:21:40;6.50;99.90
29575;DHT22;16507;51.046;6.406;2022-11-30T00:24:06;6.70;99.90
29575;DHT22;16507;51.046;6.406;2022-11-30T00:26:32;6.80;99.90
29575;DHT22;16507;51.046;6.406;2022-11-30T00:29:01;6.50;99.90
29575;DHT22;16507;51.046;6.406;2022-11-30T00:31:27;6.90;99.90
29575;DHT22;16507;51.046;6.406;2022-11-30T00:33:52;6.90;99.90
29575;DHT22;16507;51.046;6.406;2022-11-30T00:36:20;7.00;99.90
29575;DHT22;16507;51.046;6.406;2022-11-30T00:38:47;6.60;99.90
29575;DHT22;16507;51.046;6.406;2022-11-30T00:41:13;7.00;99.90
29575;DHT22;16507;51.046;6.406;2022-11-30T00:43:39;6.50;99.90
29575;DHT22;16507;51.046;6.406;2022-11-30T00:46:05;6.70;99.90
29575;DHT22;16507;51.046;6.406;2022-11-30T00:48:33;6.90;99.90
29575;DHT22;16507;51.046;6.406;2022-11-30T00:50:59;6.90;99.90
29575;DHT22;16507;51.046;6.406;2022-11-30T00:53:25;6.90;99.90
29575;DHT22;16507;51.046;6.406;2022-11-30T00:55:50;6.90;99.90
29575;DHT22;16507;51.046;6.406;2022-11-30T00:58:16;6.50;99.90
29575;DHT22;16507;51.046;6.406;2022-11-30T01:00:42;6.50;99.90
29575;DHT22;16507;51.046;6.406;2022-11-30T01:03:08;6.50;99.90
29575;DHT22;16507;51.046;6.406;2022-11-30T01:05:34;6.90;99.90
29575;DHT22;16507;51.046;6.406;2022-11-30T01:08:01;6.90;99.90
29575;DHT22;16507;51.046;6.406;2022-11-30T01:10:27;6.50;99.90
29575;DHT22;16507;51.046;6.406;2022-11-30T01:12:53;6.90;99.90
29575;DHT22;16507;51.046;6.406;2022-11-30T01:15:19;7.00;99.90
29575;DHT22;16507;51.046;6.406;2022-11-30T01:17:44;6.90;99.90
29575;DHT22;16507;51.046;6.406;2022-11-30T01:20:10;7.00;99.90
29575;DHT22;16507;51.046;6.406;2022-11-30T01:22:36;6.40;99.90
29575;DHT22;16507;51.046;6.406;2022-11-30T01:25:02;6.40;99.90
29575;DHT22;16507;51.046;6.406;2022-11-30T01:27:28;7.10;99.90
29575;DHT22;16507;51.046;6.406;2022-11-30T01:29:53;6.50;99.90
29575;DHT22;16507;51.046;6.406;2022-11-30T01:32:19;6.50;99.90
29575;DHT22;16507;51.046;6.406;2022-11-30T01:34:44;6.50;99.90
29575;DHT22;16507;51.046;6.406;2022-11-30T01:37:10;7.10;99.90
29575;DHT22;16507;51.046;6.406;2022-11-30T01:39:35;7.20;99.90
29575;DHT22;16507;51.046;6.406;2022-11-30T01:42:01;7.10;99.90
29575;DHT22;16507;51.046;6.406;2022-11-30T01:47:08;6.40;99.90
29575;DHT22;16507;51.046;6.406;2022-11-30T01:49:47;6.50;99.90
29575;DHT22;16507;51.046;6.406;2022-11-30T01:52:21;6.50;99.90
29575;DHT22;16507;51.046;6.406;2022-11-30T01:54:57;6.60;99.90
29575;DHT22;16507;51.046;6.406;2022-11-30T01:57:28;6.50;99.90
29575;DHT22;16507;51.046;6.406;2022-11-30T01:59:56;7.10;99.90
29575;DHT22;16507;51.046;6.406;2022-11-30T02:02:31;6.90;99.90
29575;DHT22;16507;51.046;6.406;2022-11-30T02:04:58;6.50;99.90
29575;DHT22;16507;51.046;6.406;2022-11-30T02:07:24;6.50;99.90
29575;DHT22;16507;51.046;6.406;2022-11-30T02:09:50;7.10;99.90
29575;DHT22;16507;51.046;6.406;2022-11-30T02:12:48;6.70;99.90
29575;DHT22;16507;51.046;6.406;2022-11-30T02:15:20;7.00;99.90
29575;DHT22;16507;51.046;6.406;2022-11-30T02:18:06;6.50;99.90
29575;DHT22;16507;51.046;6.406;2022-11-30T02:20:53;7.30;99.90
29575;DHT22;16507;51.046;6.406;2022-11-30T02:26:10;7.00;99.90
29575;DHT22;16507;51.046;6.406;2022-11-30T02:28:51;7.40;99.90
29575;DHT22;16507;51.046;6.406;2022-11-30T02:31:24;6.90;99.90
29575;DHT22;16507;51.046;6.406;2022-11-30T02:33:56;6.40;99.90
29575;DHT22;16507;51.046;6.406;2022-11-30T02:36:23;6.50;99.90
29575;DHT22;16507;51.046;6.406;2022-11-30T02:38:49;7.00;99.90
29575;DHT22;16507;51.046;6.406;2022-11-30T02:41:16;6.40;99.90
29575;DHT22;16507;51.046;6.406;2022-11-30T02:43:41;7.50;99.90
29575;DHT22;16507;51.046;6.406;2022-11-30T02:48:49;7.40;99.90
29575;DHT22;16507;51.046;6.406;2022-11-30T02:51:20;6.70;99.90
29575;DHT22;16507;51.046;6.406;2022-11-30T02:53:47;7.60;99.90
29575;DHT22;16507;51.046;6.406;2022-11-30T02:56:13;6.40;99.90
29575;DHT22;16507;51.046;6.406;2022-11-30T02:58:38;7.60;99.90
29575;DHT22;16507;51.046;6.406;2022-11-30T03:01:04;7.30;99.90
29575;DHT22;16507;51.046;6.406;2022-11-30T03:03:30;6.50;99.90
29575;DHT22;16507;51.046;6.406;2022-11-30T03:05:56;6.40;99.90
29575;DHT22;16507;51.046;6.406;2022-11-30T03:08:21;7.60;99.90
29575;DHT22;16507;51.046;6.406;2022-11-30T03:10:47;6.30;99.90
29575;DHT22;16507;51.046;6.406;2022-11-30T03:13:13;6.60;99.90
29575;DHT22;16507;51.046;6.406;2022-11-30T03:15:38;7.60;99.90
29575;DHT22;16507;51.046;6.406;2022-11-30T03:18:04;6.40;99.90
29575;DHT22;16507;51.046;6.406;2022-11-30T03:20:30;7.50;99.90
29575;DHT22;16507;51.046;6.406;2022-11-30T03:23:07;7.70;99.90
29575;DHT22;16507;51.046;6.406;2022-11-30T03:25:33;7.60;99.90
29575;DHT22;16507;51.046;6.406;2022-11-30T03:28:00;6.30;99.90
29575;DHT22;16507;51.046;6.406;2022-11-30T03:30:26;6.30;99.90
29575;DHT22;16507;51.046;6.406;2022-11-30T03:32:51;7.50;99.90
29575;DHT22;16507;51.046;6.406;2022-11-30T03:35:17;7.60;99.90
29575;DHT22;16507;51.046;6.406;2022-11-30T03:37:43;7.60;99.90
29575;DHT22;16507;51.046;6.406;2022-11-30T03:40:09;7.20;99.90
29575;DHT22;16507;51.046;6.406;2022-11-30T03:42:36;7.80;99.90
29575;DHT22;16507;51.046;6.406;2022-11-30T03:45:02;6.70;99.90
29575;DHT22;16507;51.046;6.406;2022-11-30T03:47:28;7.20;99.90
29575;DHT22;16507;51.046;6.406;2022-11-30T03:49:53;7.60;99.90
29575;DHT22;16507;51.046;6.406;2022-11-30T03:52:19;7.70;99.90
29575;DHT22;16507;51.046;6.406;2022-11-30T03:54:45;7.30;99.90
29575;DHT22;16507;51.046;6.406;2022-11-30T03:57:10;7.10;99.90
29575;DHT22;16507;51.046;6.406;2022-11-30T03:59:36;6.40;99.90
29575;DHT22;16507;51.046;6.406;2022-11-30T04:02:02;7.30;99.90
29575;DHT22;16507;51.046;6.406;2022-11-30T04:04:27;6.80;99.90
29575;DHT22;16507;51.046;6.406;2022-11-30T04:06:53;6.40;99.90
29575;DHT22;16507;51.046;6.406;2022-11-30T04:09:18;7.80;99.90
29575;DHT22;16507;51.046;6.406;2022-11-30T04:11:44;7.50;99.90
29575;DHT22;16507;51.046;6.406;2022-11-30T04:14:09;7.30;99.90
29575;DHT22;16507;51.046;6.406;2022-11-30T04:16:35;6.40;99.90
29575;DHT22;16507;51.046;6.406;2022-11-30T04:19:01;6.90;99.90
29575;DHT22;16507;51.046;6.406;2022-11-30T04:21:26;7.20;99.90
29575;DHT22;16507;51.046;6.406;2022-11-30T04:23:52;7.40;99.90
29575;DHT22;16507;51.046;6.406;2022-11-30T04:26:18;7.90;99.90
29575;DHT22;16507;51.046;6.406;2022-11-30T04:28:43;7.80;99.90
29575;DHT22;16507;51.046;6.406;2022-11-30T04:31:09;6.50;99.90
29575;DHT22;16507;51.046;6.406;2022-11-30T04:33:36;7.80;99.90
29575;DHT22;16507;51.046;6.406;2022-11-30T04:36:03;7.70;99.90
29575;DHT22;16507;51.046;6.406;2022-11-30T04:38:30;7.20;99.90
29575;DHT22;16507;51.046;6.406;2022-11-30T04:40:55;6.70;99.90
29575;DHT22;16507;51.046;6.406;2022-11-30T04:43:21;6.60;99.90
29575;DHT22;16507;51.046;6.406;2022-11-30T04:45:48;7.40;99.90
29575;DHT22;16507;51.046;6.406;2022-11-30T04:48:15;7.20;99.90
29575;DHT22;16507;51.046;6.406;2022-11-30T04:50:41;6.40;99.90
29575;DHT22;16507;51.046;6.406;2022-11-30T04:53:06;7.30;99.90
29575;DHT22;16507;51.046;6.406;2022-11-30T04:55:32;6.20;99.90
29575;DHT22;16507;51.046;6.406;2022-11-30T04:57:58;7.00;99.90
29575;DHT22;16507;51.046;6.406;2022-11-30T05:00:23;7.30;99.90
29575;DHT22;16507;51.046;6.406;2022-11-30T05:02:49;6.90;99.90
29575;DHT22;16507;51.046;6.406;2022-11-30T05:05:14;7.10;99.90
29575;DHT22;16507;51.046;6.406;2022-11-30T05:07:40;6.20;99.90
29575;DHT22;16507;51.046;6.406;2022-11-30T05:10:06;6.80;99.90
29575;DHT22;16507;51.046;6.406;2022-11-30T05:12:35;6.50;99.90
29575;DHT22;16507;51.046;6.406;2022-11-30T05:15:01;7.00;99.90
29575;DHT22;16507;51.046;6.406;2022-11-30T05:17:27;7.00;99.90
29575;DHT22;16507;51.046;6.406;2022-11-30T05:19:52;6.40;99.90
29575;DHT22;16507;51.046;6.406;2022-11-30T05:22:18;6.30;99.90
29575;DHT22;16507;51.046;6.406;2022-11-30T05:24:43;6.40;99.90
29575;DHT22;16507;51.046;6.406;2022-11-30T05:27:09;6.10;99.90
29575;DHT22;16507;51.046;6.406;2022-11-30T05:29:35;7.00;99.90
29575;DHT22;16507;51.046;6.406;2022-11-30T05:32:03;6.70;99.90
29575;DHT22;16507;51.046;6.406;2022-11-30T05:34:29;6.50;99.90
29575;DHT22;16507;51.046;6.406;2022-11-30T05:36:54;6.40;99.90
29575;DHT22;16507;51.046;6.406;2022-11-30T05:39:20;6.60;99.90
29575;DHT22;16507;51.046;6.406;2022-11-30T05:41:45;6.20;99.90
29575;DHT22;16507;51.046;6.406;2022-11-30T05:44:11;6.40;99.90
29575;DHT22;16507;51.046;6.406;2022-11-30T05:46:37;6.60;99.90
29575;DHT22;16507;51.046;6.406;2022-11-30T05:49:03;6.80;99.90
29575;DHT22;16507;51.046;6.406;2022-11-30T05:51:29;6.40;99.90
29575;DHT22;16507;51.046;6.406;2022-11-30T05:53:54;6.30;99.90
29575;DHT22;16507;51.046;6.406;2022-11-30T05:56:21;6.70;99.90
29575;DHT22;16507;51.046;6.406;2022-11-30T05:58:47;6.30;99.90
29575;DHT22;16507;51.046;6.406;2022-11-30T06:01:30;7.00;99.90
29575;DHT22;16507;51.046;6.406;2022-11-30T06:03:56;6.90;99.90
29575;DHT22;16507;51.046;6.406;2022-11-30T06:06:22;6.90;99.90
29575;DHT22;16507;51.046;6.406;2022-11-30T06:08:48;6.90;99.90
29575;DHT22;16507;51.046;6.406;2022-11-30T06:11:15;6.60;99.90
29575;DHT22;16507;51.046;6.406;2022-11-30T06:13:41;6.30;99.90
29575;DHT22;16507;51.046;6.406;2022-11-30T06:16:07;6.80;99.90
29575;DHT22;16507;51.046;6.406;2022-11-30T06:18:33;6.70;99.90
29575;DHT22;16507;51.046;6.406;2022-11-30T06:21:00;6.80;99.90
29575;DHT22;16507;51.046;6.406;2022-11-30T06:23:26;6.40;99.90
29575;DHT22;16507;51.046;6.406;2022-11-30T06:25:51;6.40;99.90
29575;DHT22;16507;51.046;6.406;2022-11-30T06:28:17;6.90;99.90
29575;DHT22;16507;51.046;6.406;2022-11-30T06:30:43;6.60;99.90
29575;DHT22;16507;51.046;6.406;2022-11-30T06:33:08;6.60;99.90
29575;DHT22;16507;51.046;6.406;2022-11-30T06:35:34;6.90;99.90
29575;DHT22;16507;51.046;6.406;2022-11-30T06:38:03;6.80;99.90
29575;DHT22;16507;51.046;6.406;2022-11-30T06:40:28;6.40;99.90
29575;DHT22;16507;51.046;6.406;2022-11-30T06:42:54;6.20;99.90
29575;DHT22;16507;51.046;6.406;2022-11-30T06:45:19;6.20;99.90
29575;DHT22;16507;51.046;6.406;2022-11-30T06:47:45;6.30;99.90
29575;DHT22;16507;51.046;6.406;2022-11-30T06:50:12;6.40;99.90
29575;DHT22;16507;51.046;6.406;2022-11-30T06:52:38;6.50;99.90
29575;DHT22;16507;51.046;6.406;2022-11-30T06:55:04;6.60;99.90
29575;DHT22;16507;51.046;6.406;2022-11-30T06:57:29;6.70;99.90
29575;DHT22;16507;51.046;6.406;2022-11-30T06:59:56;6.20;99.90
29575;DHT22;16507;51.046;6.406;2022-11-30T07:02:22;6.30;99.90
29575;DHT22;16507;51.046;6.406;2022-11-30T07:04:48;6.50;99.90
29575;DHT22;16507;51.046;6.406;2022-11-30T07:07:14;6.10;99.90
29575;DHT22;16507;51.046;6.406;2022-11-30T07:09:39;6.40;99.90
29575;DHT22;16507;51.046;6.406;2022-11-30T07:12:05;6.50;99.90
29575;DHT22;16507;51.046;6.406;2022-11-30T07:14:31;5.90;99.90
29575;DHT22;16507;51.046;6.406;2022-11-30T07:16:57;6.00;99.90
29575;DHT22;16507;51.046;6.406;2022-11-30T07:19:23;6.30;99.90
29575;DHT22;16507;51.046;6.406;2022-11-30T07:21:48;6.10;99.90
29575;DHT22;16507;51.046;6.406;2022-11-30T07:24:14;6.10;99.90
29575;DHT22;16507;51.046;6.406;2022-11-30T07:26:59;5.90;99.90
29575;DHT22;16507;51.046;6.406;2022-11-30T07:29:25;6.20;99.90
29575;DHT22;16507;51.046;6.406;2022-11-30T07:31:51;6.10;99.90
29575;DHT22;16507;51.046;6.406;2022-11-30T07:34:17;5.60;99.90
29575;DHT22;16507;51.046;6.406;2022-11-30T07:36:46;5.60;99.90
29575;DHT22;16507;51.046;6.406;2022-11-30T07:39:13;6.10;99.90
29575;DHT22;16507;51.046;6.406;2022-11-30T07:41:39;6.10;99.90
29575;DHT22;16507;51.046;6.406;2022-11-30T07:44:07;5.60;99.90
29575;DHT22;16507;51.046;6.406;2022-11-30T07:46:33;5.40;99.90
29575;DHT22;16507;51.046;6.406;2022-11-30T07:49:01;5.80;99.90
29575;DHT22;16507;51.046;6.406;2022-11-30T07:51:27;5.60;99.90
29575;DHT22;16507;51.046;6.406;2022-11-30T07:53:56;5.90;99.90
29575;DHT22;16507;51.046;6.406;2022-11-30T07:56:22;5.70;99.90
29575;DHT22;16507;51.046;6.406;2022-11-30T07:58:49;5.80;99.90
29575;DHT22;16507;51.046;6.406;2022-11-30T08:01:18;5.80;99.90
29575;DHT22;16507;51.046;6.406;2022-11-30T08:03:45;5.60;99.90
29575;DHT22;16507;51.046;6.406;2022-11-30T08:06:14;5.40;99.90
29575;DHT22;16507;51.046;6.406;2022-11-30T08:08:44;5.40;99.90
29575;DHT22;16507;51.046;6.406;2022-11-30T08:11:12;5.90;99.90
29575;DHT22;16507;51.046;6.406;2022-11-30T08:13:38;5.40;99.90
29575;DHT22;16507;51.046;6.406;2022-11-30T08:16:06;5.90;99.90
29575;DHT22;16507;51.046;6.406;2022-11-30T08:18:32;5.60;99.90
29575;DHT22;16507;51.046;6.406;2022-11-30T08:20:59;5.50;99.90
29575;DHT22;16507;51.046;6.406;2022-11-30T08:23:30;5.80;99.90
29575;DHT22;16507;51.046;6.406;2022-11-30T08:26:00;5.90;99.90
29575;DHT22;16507;51.046;6.406;2022-11-30T08:28:28;6.00;99.90
29575;DHT22;16507;51.046;6.406;2022-11-30T08:30:58;5.70;99.90
29575;DHT22;16507;51.046;6.406;2022-11-30T08:33:24;6.00;99.90
29575;DHT22;16507;51.046;6.406;2022-11-30T08:35:50;5.70;99.90
29575;DHT22;16507;51.046;6.406;2022-11-30T08:38:15;5.90;99.90
29575;DHT22;16507;51.046;6.406;2022-11-30T08:40:41;6.20;99.90
29575;DHT22;16507;51.046;6.406;2022-11-30T08:43:06;6.20;99.90
29575;DHT22;16507;51.046;6.406;2022-11-30T08:45:32;6.20;99.90
29575;DHT22;16507;51.046;6.406;2022-11-30T08:47:57;6.10;99.90
29575;DHT22;16507;51.046;6.406;2022-11-30T08:50:23;6.20;99.90
29575;DHT22;16507;51.046;6.406;2022-11-30T08:52:49;6.40;99.90
29575;DHT22;16507;51.046;6.406;2022-11-30T08:55:14;6.30;99.90
29575;DHT22;16507;51.046;6.406;2022-11-30T08:57:40;6.10;99.90
29575;DHT22;16507;51.046;6.406;2022-11-30T09:00:06;5.90;99.90
29575;DHT22;16507;51.046;6.406;2022-11-30T09:02:35;5.90;99.90
29575;DHT22;16507;51.046;6.406;2022-11-30T09:05:01;6.40;99.90
29575;DHT22;16507;51.046;6.406;2022-11-30T09:07:26;6.30;99.90
29575;DHT22;16507;51.046;6.406;2022-11-30T09:09:52;6.30;99.90
29575;DHT22;16507;51.046;6.406;2022-11-30T09:12:17;6.20;99.90
29575;DHT22;16507;51.046;6.406;2022-11-30T09:14:43;6.40;99.90
29575;DHT22;16507;51.046;6.406;2022-11-30T09:17:09;6.20;99.90
29575;DHT22;16507;51.046;6.406;2022-11-30T09:19:35;6.40;99.90
29575;DHT22;16507;51.046;6.406;2022-11-30T09:22:01;6.20;99.90
29575;DHT22;16507;51.046;6.406;2022-11-30T09:24:26;6.00;99.90
29575;DHT22;16507;51.046;6.406;2022-11-30T09:26:54;6.00;99.90
29575;DHT22;16507;51.046;6.406;2022-11-30T09:29:21;6.20;99.90
29575;DHT22;16507;51.046;6.406;2022-11-30T09:31:46;5.90;99.90
29575;DHT22;16507;51.046;6.406;2022-11-30T09:34:13;6.30;99.90
29575;DHT22;16507;51.046;6.406;2022-11-30T09:36:39;6.40;99.90
29575;DHT22;16507;51.046;6.406;2022-11-30T09:39:04;6.10;99.90
29575;DHT22;16507;51.046;6.406;2022-11-30T09:41:37;5.90;99.90
29575;DHT22;16507;51.046;6.406;2022-11-30T09:46:45;5.90;99.90
29575;DHT22;16507;51.046;6.406;2022-11-30T09:49:23;5.90;99.90
29575;DHT22;16507;51.046;6.406;2022-11-30T09:51:51;6.30;99.90
29575;DHT22;16507;51.046;6.406;2022-11-30T09:54:30;5.80;99.90
29575;DHT22;16507;51.046;6.406;2022-11-30T10:00:05;5.80;99.90
29575;DHT22;16507;51.046;6.406;2022-11-30T10:02:36;5.90;99.90
29575;DHT22;16507;51.046;6.406;2022-11-30T10:05:18;5.70;99.90
29575;DHT22;16507;51.046;6.406;2022-11-30T10:10:47;5.90;99.90
29575;DHT22;16507;51.046;6.406;2022-11-30T10:16:24;5.70;99.90
29575;DHT22;16507;51.046;6.406;2022-11-30T10:24:23;6.00;99.90
29575;DHT22;16507;51.046;6.406;2022-11-30T10:26:57;5.90;99.90
29575;DHT22;16507;51.046;6.406;2022-11-30T10:29:38;6.20;99.90
29575;DHT22;16507;51.046;6.406;2022-11-30T10:32:19;5.80;99.90
29575;DHT22;16507;51.046;6.406;2022-11-30T10:34:56;5.90;99.90
29575;DHT22;16507;51.046;6.406;2022-11-30T10:37:35;5.90;99.90
29575;DHT22;16507;51.046;6.406;2022-11-30T10:40:02;5.90;99.90
29575;DHT22;16507;51.046;6.406;2022-11-30T10:42:48;6.30;99.90
29575;DHT22;16507;51.046;6.406;2022-11-30T10:45:19;6.30;99.90
29575;DHT22;16507;51.046;6.406;2022-11-30T10:47:52;6.00;99.90
29575;DHT22;16507;51.046;6.406;2022-11-30T10:50:25;6.40;99.90
29575;DHT22;16507;51.046;6.406;2022-11-30T10:52:53;6.50;99.90
29575;DHT22;16507;51.046;6.406;2022-11-30T10:55:25;6.40;99.90
29575;DHT22;16507;51.046;6.406;2022-11-30T10:58:17;6.50;99.90
29575;DHT22;16507;51.046;6.406;2022-11-30T11:01:27;6.20;99.90
29575;DHT22;16507;51.046;6.406;2022-11-30T11:03:35;6.30;99.90
29575;DHT22;16507;51.046;6.406;2022-11-30T11:06:22;6.50;99.90
29575;DHT22;16507;51.046;6.406;2022-11-30T11:08:48;6.50;99.90
29575;DHT22;16507;51.046;6.406;2022-11-30T11:11:37;6.50;99.90
29575;DHT22;16507;51.046;6.406;2022-11-30T11:14:18;6.70;99.90
29575;DHT22;16507;51.046;6.406;2022-11-30T11:17:05;6.40;99.90
29575;DHT22;16507;51.046;6.406;2022-11-30T11:19:45;6.50;99.90
29575;DHT22;16507;51.046;6.406;2022-11-30T11:22:23;6.60;99.90
29575;DHT22;16507;51.046;6.406;2022-11-30T11:24:53;6.70;99.90
29575;DHT22;16507;51.046;6.406;2022-11-30T11:27:26;6.60;99.90
29575;DHT22;16507;51.046;6.406;2022-11-30T11:35:34;6.50;99.90
29575;DHT22;16507;51.046;6.406;2022-11-30T11:38:00;6.70;99.90
29575;DHT22;16507;51.046;6.406;2022-11-30T11:40:25;6.60;99.90
29575;DHT22;16507;51.046;6.406;2022-11-30T11:42:53;6.70;99.90
29575;DHT22;16507;51.046;6.406;2022-11-30T11:45:36;6.80;99.90
29575;DHT22;16507;51.046;6.406;2022-11-30T11:48:04;6.60;99.90
29575;DHT22;16507;51.046;6.406;2022-11-30T11:50:33;6.70;99.90
29575;DHT22;16507;51.046;6.406;2022-11-30T11:53:22;6.70;99.90
29575;DHT22;16507;51.046;6.406;2022-11-30T11:55:58;6.80;99.90
29575;DHT22;16507;51.046;6.406;2022-11-30T11:58:58;6.60;99.90
29575;DHT22;16507;51.046;6.406;2022-11-30T12:01:43;6.60;99.90
29575;DHT22;16507;51.046;6.406;2022-11-30T12:04:30;6.70;99.90
29575;DHT22;16507;51.046;6.406;2022-11-30T12:07:05;6.50;99.90
29575;DHT22;16507;51.046;6.406;2022-11-30T12:09:39;6.50;99.90
29575;DHT22;16507;51.046;6.406;2022-11-30T12:12:12;6.70;99.90
29575;DHT22;16507;51.046;6.406;2022-11-30T12:14:37;6.60;99.90
29575;DHT22;16507;51.046;6.406;2022-11-30T12:17:19;6.70;99.90
29575;DHT22;16507;51.046;6.406;2022-11-30T12:20:21;6.70;99.90
29575;DHT22;16507;51.046;6.406;2022-11-30T12:23:02;6.60;99.90
29575;DHT22;16507;51.046;6.406;2022-11-30T12:31:17;6.60;99.90
29575;DHT22;16507;51.046;6.406;2022-11-30T12:36:50;6.80;99.90
29575;DHT22;16507;51.046;6.406;2022-11-30T12:41:55;6.70;99.90
29575;DHT22;16507;51.046;6.406;2022-11-30T12:44:33;6.80;99.90
29575;DHT22;16507;51.046;6.406;2022-11-30T12:50:26;7.00;99.90
29575;DHT22;16507;51.046;6.406;2022-11-30T13:02:07;7.00;99.90
29575;DHT22;16507;51.046;6.406;2022-11-30T13:04:43;6.80;99.90
29575;DHT22;16507;51.046;6.406;2022-11-30T13:07:33;7.00;99.90
29575;DHT22;16507;51.046;6.406;2022-11-30T13:12:37;7.20;99.90
29575;DHT22;16507;51.046;6.406;2022-11-30T13:15:24;7.10;99.90
29575;DHT22;16507;51.046;6.406;2022-11-30T13:17:53;7.20;99.90
29575;DHT22;16507;51.046;6.406;2022-11-30T13:23:09;7.10;99.90
29575;DHT22;16507;51.046;6.406;2022-11-30T13:26:04;7.10;99.90
29575;DHT22;16507;51.046;6.406;2022-11-30T13:28:40;7.00;99.90
29575;DHT22;16507;51.046;6.406;2022-11-30T13:31:20;7.00;99.90
29575;DHT22;16507;51.046;6.406;2022-11-30T13:33:56;7.00;99.90
29575;DHT22;16507;51.046;6.406;2022-11-30T13:36:41;7.20;99.90
29575;DHT22;16507;51.046;6.406;2022-11-30T13:39:22;7.20;99.90
29575;DHT22;16507;51.046;6.406;2022-11-30T13:44:42;7.00;99.90
29575;DHT22;16507;51.046;6.406;2022-11-30T13:47:29;7.00;99.90
29575;DHT22;16507;51.046;6.406;2022-11-30T13:49:57;7.10;99.90
29575;DHT22;16507;51.046;6.406;2022-11-30T13:58:08;7.10;99.90
29575;DHT22;16507;51.046;6.406;2022-11-30T14:05:47;7.00;99.90
29575;DHT22;16507;51.046;6.406;2022-11-30T14:10:51;7.00;99.90
29575;DHT22;16507;51.046;6.406;2022-11-30T14:23:25;7.00;99.90
29575;DHT22;16507;51.046;6.406;2022-11-30T14:25:54;7.10;99.90
29575;DHT22;16507;51.046;6.406;2022-11-30T14:28:24;7.00;99.90
29575;DHT22;16507;51.046;6.406;2022-11-30T14:30:53;7.10;99.90
29575;DHT22;16507;51.046;6.406;2022-11-30T14:33:30;7.10;99.90
29575;DHT22;16507;51.046;6.406;2022-11-30T14:36:01;7.00;99.90
29575;DHT22;16507;51.046;6.406;2022-11-30T14:38:28;6.90;99.90
29575;DHT22;16507;51.046;6.406;2022-11-30T14:40:57;7.10;99.90
29575;DHT22;16507;51.046;6.406;2022-11-30T14:43:23;7.10;99.90
29575;DHT22;16507;51.046;6.406;2022-11-30T14:46:00;6.90;99.90
29575;DHT22;16507;51.046;6.406;2022-11-30T14:48:26;7.00;99.90
29575;DHT22;16507;51.046;6.406;2022-11-30T14:50:57;6.80;99.90
29575;DHT22;16507;51.046;6.406;2022-11-30T14:56:24;6.80;99.90
29575;DHT22;16507;51.046;6.406;2022-11-30T15:01:41;6.80;99.90
29575;DHT22;16507;51.046;6.406;2022-11-30T15:04:13;6.70;99.90
29575;DHT22;16507;51.046;6.406;2022-11-30T15:06:41;6.80;99.90
29575;DHT22;16507;51.046;6.406;2022-11-30T15:09:17;6.90;99.90
29575;DHT22;16507;51.046;6.406;2022-11-30T15:11:46;6.80;99.90
29575;DHT22;16507;51.046;6.406;2022-11-30T15:14:12;6.90;99.90
29575;DHT22;16507;51.046;6.406;2022-11-30T15:16:55;6.70;99.90
29575;DHT22;16507;51.046;6.406;2022-11-30T15:19:25;6.80;99.90
29575;DHT22;16507;51.046;6.406;2022-11-30T15:21:52;6.90;99.90
29575;DHT22;16507;51.046;6.406;2022-11-30T15:24:18;6.70;99.90
29575;DHT22;16507;51.046;6.406;2022-11-30T15:29:58;6.90;99.90
29575;DHT22;16507;51.046;6.406;2022-11-30T15:32:25;6.90;99.90
29575;DHT22;16507;51.046;6.406;2022-11-30T15:34:54;6.70;99.90
29575;DHT22;16507;51.046;6.406;2022-11-30T15:37:31;6.80;99.90
29575;DHT22;16507;51.046;6.406;2022-11-30T15:40:00;6.70;99.90
29575;DHT22;16507;51.046;6.406;2022-11-30T15:42:31;6.60;99.90
29575;DHT22;16507;51.046;6.406;2022-11-30T15:45:14;6.80;99.90
29575;DHT22;16507;51.046;6.406;2022-11-30T15:47:41;6.70;99.90
29575;DHT22;16507;51.046;6.406;2022-11-30T15:53:24;6.60;99.90
29575;DHT22;16507;51.046;6.406;2022-11-30T15:55:51;6.50;99.90
29575;DHT22;16507;51.046;6.406;2022-11-30T15:58:37;6.60;99.90
29575;DHT22;16507;51.046;6.406;2022-11-30T16:01:17;6.70;99.90
29575;DHT22;16507;51.046;6.406;2022-11-30T16:06:23;6.70;99.90
29575;DHT22;16507;51.046;6.406;2022-11-30T16:08:49;6.60;99.90
29575;DHT22;16507;51.046;6.406;2022-11-30T16:11:18;6.70;99.90
29575;DHT22;16507;51.046;6.406;2022-11-30T16:13:44;6.70;99.90
29575;DHT22;16507;51.046;6.406;2022-11-30T16:16:23;6.60;99.90
29575;DHT22;16507;51.046;6.406;2022-11-30T16:18:50;6.70;99.90
29575;DHT22;16507;51.046;6.406;2022-11-30T16:21:17;6.70;99.90
29575;DHT22;16507;51.046;6.406;2022-11-30T16:23:44;6.60;99.90
29575;DHT22;16507;51.046;6.406;2022-11-30T16:26:15;6.80;99.90
29575;DHT22;16507;51.046;6.406;2022-11-30T16:28:41;6.80;99.90
29575;DHT22;16507;51.046;6.406;2022-11-30T16:31:13;6.70;99.90
29575;DHT22;16507;51.046;6.406;2022-11-30T16:33:40;6.70;99.90
29575;DHT22;16507;51.046;6.406;2022-11-30T16:36:13;6.60;99.90
29575;DHT22;16507;51.046;6.406;2022-11-30T16:38:39;6.70;99.90
29575;DHT22;16507;51.046;6.406;2022-11-30T16:43:39;6.70;99.90
29575;DHT22;16507;51.046;6.406;2022-11-30T16:46:08;6.70;99.90
29575;DHT22;16507;51.046;6.406;2022-11-30T16:48:34;6.60;99.90
29575;DHT22;16507;51.046;6.406;2022-11-30T16:54:14;6.70;99.90
29575;DHT22;16507;51.046;6.406;2022-11-30T16:56:41;6.60;99.90
29575;DHT22;16507;51.046;6.406;2022-11-30T16:59:06;6.60;99.90
29575;DHT22;16507;51.046;6.406;2022-11-30T17:01:38;6.50;99.90
29575;DHT22;16507;51.046;6.406;2022-11-30T17:06:34;6.50;99.90
29575;DHT22;16507;51.046;6.406;2022-11-30T17:08:59;6.60;99.90
29575;DHT22;16507;51.046;6.406;2022-11-30T17:11:32;6.50;99.90
29575;DHT22;16507;51.046;6.406;2022-11-30T17:13:58;6.50;99.90
29575;DHT22;16507;51.046;6.406;2022-11-30T17:16:25;6.40;99.90
29575;DHT22;16507;51.046;6.406;2022-11-30T17:18:51;6.40;99.90
29575;DHT22;16507;51.046;6.406;2022-11-30T17:21:21;6.60;99.90
29575;DHT22;16507;51.046;6.406;2022-11-30T17:23:48;6.40;99.90
29575;DHT22;16507;51.046;6.406;2022-11-30T17:26:13;6.60;99.90
29575;DHT22;16507;51.046;6.406;2022-11-30T17:28:39;6.40;99.90
29575;DHT22;16507;51.046;6.406;2022-11-30T17:31:08;6.60;99.90
29575;DHT22;16507;51.046;6.406;2022-11-30T17:33:35;6.50;99.90
29575;DHT22;16507;51.046;6.406;2022-11-30T17:36:02;6.60;99.90
29575;DHT22;16507;51.046;6.406;2022-11-30T17:38:30;6.50;99.90
29575;DHT22;16507;51.046;6.406;2022-11-30T17:40:56;6.60;99.90
29575;DHT22;16507;51.046;6.406;2022-11-30T17:43:22;6.50;99.90
29575;DHT22;16507;51.046;6.406;2022-11-30T17:45:47;6.40;99.90
29575;DHT22;16507;51.046;6.406;2022-11-30T17:48:13;6.40;99.90